Startpagina
METAR-TAF:

METAR-TAF

Vliegvelden :

Aeropuerto de Málaga-Costa del Sol

Málaga, Spanje

breedte: 36-40N, lengte: 004-29W, hoogte: 16 m

Actueel weer

Dit bericht is 30 minuten geleden gemaakt, om 22:00 UTC
Wind 3 kt uit het westen, variërend tussen het zuidwesten en het westnoordwesten
Temperatuur 19°C
Vochtigheid 73%
Druk 1014 hPa
Zicht 10 km of meer
geen wolken onder 1500 m en geen cumulonimbus

METAR: LEMG 312200Z 27003KT 230V290 CAVOK 19/14 Q1014 NOSIG

Tijdstip: 00:30 (22:30 UTC)

Verwachting

Dit bericht is 5 uur en het 30 minuten geleden gemaakt, om 17:00 UTC
Verwachting geldig van 31 om 18 UTC tot 01 om 18 UTC
Wind 4 kt uit het zuidoosten
Zicht 10 km of meer
Weinig wolken op 4000 ft
Wijzigt naar
van 31 om 20 UTC tot 31 om 23 UTC
Wind 6 kt uit het westnoordwesten
Wijzigt naar
van 01 om 08 UTC tot 01 om 10 UTC
Wind 8 kt uit het zuidzuidoosten

TAF: LEMG 311700Z 3118/0118 13004KT 9999 FEW040 TX26/0112Z TN16/0105Z BECMG 3120/3123 29006KT BECMG 0108/0110 15008KT

Waarnemingen en weersverwachtingen van meer dan 4000 vliegvelden (METAR en TAF).

De beschikbare stations zijn de gele en rode punten op de kaart.

Ga met uw muis naar het station om de naam te zien.

Klik dan om waarnemingen en weersverwachtingen te zien.

kaart wijzigen: klik op de groene knoppen met een zwart kruis om in te zoomen, op de groene knop met een streepje om uit te zoomen of op de groene pijlen voor aangrenzende kaarten.


METAR-TAF: